Time;durP1;ratioP1;P1;durP2;ratioP2;P2;SDS_P1;SDS_P2;PMS_P1;PMS_P2;Temp;Humidity;BMP_temperature;BMP_pressure;BME280_temperature;BME280_humidity;BME280_pressure;Samples;Min_cycle;Max_cycle;Signal;HPM_P1;HPM_P2
2022/03/27 00:02:09;;;;;;;19.05;10.85;;;8.90;99.90;;;8.75;100.00;98683.69;5001495;28;20484;-71
2022/03/27 00:04:36;;;;;;;16.52;9.65;;;8.90;99.90;;;8.80;100.00;98681.84;4990057;28;20104;-71
2022/03/27 00:07:04;;;;;;;16.08;8.80;;;8.90;99.90;;;8.70;100.00;98686.34;5006188;28;20504;-71
2022/03/27 00:09:31;;;;;;;16.75;10.82;;;8.90;99.90;;;8.60;100.00;98679.66;5002665;28;20216;-71
2022/03/27 00:11:57;;;;;;;16.83;10.43;;;8.80;99.90;;;8.53;100.00;98685.78;5004619;28;20544;-71
2022/03/27 00:14:25;;;;;;;18.73;10.27;;;8.70;99.90;;;8.47;100.00;98680.72;4999444;28;20606;-72
2022/03/27 00:16:51;;;;;;;16.77;10.25;;;8.70;99.90;;;8.46;100.00;98685.06;5004051;28;20081;-72
2022/03/27 00:19:18;;;;;;;18.10;10.25;;;8.70;99.90;;;8.50;100.00;98691.00;5005908;28;20062;-71
2022/03/27 00:21:45;;;;;;;16.45;9.77;;;8.70;99.90;;;8.42;100.00;98690.31;5002782;28;20141;-71
2022/03/27 00:24:13;;;;;;;18.15;9.95;;;8.60;99.90;;;8.47;100.00;98685.91;5002050;28;20046;-71
2022/03/27 00:26:41;;;;;;;18.52;10.48;;;8.60;99.90;;;8.37;100.00;98682.59;5006304;28;20093;-71
2022/03/27 00:29:08;;;;;;;17.45;9.65;;;8.60;99.90;;;8.38;100.00;98679.94;5003920;28;20145;-71
2022/03/27 00:31:36;;;;;;;18.98;10.57;;;8.60;99.90;;;8.37;100.00;98687.75;5006324;28;20507;-71
2022/03/27 00:34:05;;;;;;;20.55;10.52;;;8.60;99.90;;;8.28;100.00;98685.28;5001649;28;20122;-71
2022/03/27 00:36:32;;;;;;;22.35;10.77;;;8.60;99.90;;;8.14;100.00;98678.63;5002519;28;20074;-72
2022/03/27 00:38:59;;;;;;;19.05;11.18;;;8.40;99.90;;;8.01;100.00;98676.25;5003505;28;20046;-72
2022/03/27 00:41:26;;;;;;;18.50;11.20;;;8.40;99.90;;;7.95;100.00;98684.91;5006082;28;20137;-70
2022/03/27 00:43:53;;;;;;;21.08;10.85;;;8.30;99.90;;;7.95;100.00;98687.50;5019199;28;20141;-72
2022/03/27 00:46:20;;;;;;;23.75;11.07;;;8.20;99.90;;;7.96;100.00;98678.88;5005247;28;20046;-70
2022/03/27 00:48:47;;;;;;;20.92;11.75;;;8.20;99.90;;;7.92;100.00;98688.41;5000870;28;20530;-70
2022/03/27 00:51:14;;;;;;;15.93;10.55;;;8.20;99.90;;;7.87;100.00;98686.78;4998665;28;20058;-72
2022/03/27 00:53:42;;;;;;;18.08;11.63;;;8.20;99.90;;;7.75;100.00;98682.59;5004369;28;20149;-72
2022/03/27 00:56:09;;;;;;;21.30;10.75;;;8.00;99.90;;;7.83;100.00;98685.09;5002417;28;20121;-72
2022/03/27 00:58:36;;;;;;;21.25;11.80;;;8.00;99.90;;;7.60;100.00;98681.09;5006578;28;20081;-72
2022/03/27 01:01:31;;;;;;;18.83;11.32;;;7.90;99.90;;;7.57;100.00;98685.44;4998206;28;20121;-72
2022/03/27 01:03:59;;;;;;;21.38;11.98;;;7.90;99.90;;;7.49;100.00;98678.63;4998357;28;20343;-70
2022/03/27 01:06:36;;;;;;;17.38;11.63;;;7.80;99.90;;;7.38;100.00;98679.66;4993223;28;20086;-72
2022/03/27 01:11:56;;;;;;;21.65;12.13;;;7.60;99.90;;;7.31;100.00;98676.28;5000911;28;20058;-72
2022/03/27 01:14:32;;;;;;;19.05;12.57;;;7.60;99.90;;;7.28;100.00;98668.59;5004590;28;20149;-72
2022/03/27 01:17:08;;;;;;;21.35;12.23;;;7.60;99.90;;;7.25;100.00;98669.47;5014242;28;20124;-72
2022/03/27 01:19:40;;;;;;;22.48;10.93;;;7.60;99.90;;;7.26;100.00;98671.16;5001517;28;20077;-71
2022/03/27 01:22:08;;;;;;;22.85;12.38;;;7.60;99.90;;;7.35;100.00;98666.78;5003307;28;20073;-71
2022/03/27 01:24:35;;;;;;;19.35;12.52;;;7.50;99.90;;;7.32;100.00;98663.34;4999518;28;20111;-71
2022/03/27 01:27:03;;;;;;;19.73;12.55;;;7.50;99.90;;;7.23;100.00;98654.84;5000734;28;20077;-71
2022/03/27 01:29:30;;;;;;;19.45;12.32;;;7.50;99.90;;;7.33;100.00;98665.06;5001321;28;20133;-71
2022/03/27 01:31:58;;;;;;;20.42;11.60;;;7.50;99.90;;;7.15;100.00;98659.25;5006040;28;20149;-71
2022/03/27 01:34:25;;;;;;;18.98;12.23;;;7.50;99.90;;;7.18;100.00;98652.31;5000702;28;20054;-71
2022/03/27 01:36:53;;;;;;;18.33;12.30;;;7.40;99.90;;;7.17;100.00;98655.78;5007033;28;20132;-71
2022/03/27 01:39:20;;;;;;;21.42;12.07;;;7.40;99.90;;;7.14;100.00;98655.84;5004936;28;20060;-71
2022/03/27 01:41:46;;;;;;;18.42;11.73;;;7.40;99.90;;;7.13;100.00;98659.28;5006272;28;20467;-72
2022/03/27 01:44:17;;;;;;;19.88;12.45;;;7.40;99.90;;;7.14;100.00;98655.84;5000054;28;20496;-71
2022/03/27 01:46:44;;;;;;;21.48;12.07;;;7.40;99.90;;;7.08;100.00;98648.16;5008437;28;20129;-72
2022/03/27 01:49:15;;;;;;;20.95;12.23;;;7.30;99.90;;;7.00;100.00;98656.00;4999096;28;20516;-71
2022/03/27 01:51:44;;;;;;;22.05;12.40;;;7.20;99.90;;;7.05;100.00;98653.34;5001016;28;20046;-71
2022/03/27 01:54:13;;;;;;;20.85;12.40;;;7.30;99.90;;;7.06;100.00;98657.63;4999907;28;20141;-71
2022/03/27 01:56:42;;;;;;;20.77;12.52;;;7.30;99.90;;;7.17;100.00;98650.63;5001640;28;20046;-71
2022/03/27 01:59:09;;;;;;;22.05;12.82;;;7.40;99.90;;;6.97;100.00;98648.25;5005915;28;20133;-71
2022/03/27 02:01:37;;;;;;;24.45;13.27;;;7.30;99.90;;;6.82;100.00;98657.03;5008071;28;20133;-72
2022/03/27 02:04:06;;;;;;;21.80;13.10;;;7.20;99.90;;;6.80;100.00;98656.19;5004846;28;20061;-71
2022/03/27 02:06:37;;;;;;;21.65;12.68;;;7.20;99.90;;;6.72;100.00;98649.41;5005601;28;20132;-71
2022/03/27 02:09:04;;;;;;;20.98;13.10;;;7.10;99.90;;;6.66;100.00;98653.75;5000579;28;20046;-72
2022/03/27 02:11:32;;;;;;;21.17;12.73;;;7.00;99.90;;;6.47;100.00;98652.19;5005352;28;20463;-72
2022/03/27 02:13:59;;;;;;;24.98;13.43;;;6.90;99.90;;;6.43;100.00;98653.97;5015655;28;20224;-71
2022/03/27 02:16:26;;;;;;;22.73;13.52;;;6.80;99.90;;;6.23;100.00;98661.84;5006553;28;20088;-71
2022/03/27 02:18:54;;;;;;;19.88;12.55;;;6.70;99.90;;;6.15;100.00;98655.91;5001657;28;20380;-71
2022/03/27 02:21:21;;;;;;;29.60;14.77;;;6.60;99.90;;;5.95;100.00;98655.19;5007311;28;20136;-71
2022/03/27 02:23:49;;;;;;;25.17;13.30;;;6.50;99.90;;;5.97;100.00;98667.19;5005235;28;20046;-71
2022/03/27 02:26:16;;;;;;;23.77;14.82;;;6.40;99.90;;;5.77;100.00;98663.84;5003468;28;20164;-71
2022/03/27 02:28:43;;;;;;;23.17;13.25;;;6.30;99.90;;;5.62;100.00;98657.06;5000801;28;20224;-71
2022/03/27 02:31:10;;;;;;;24.35;13.40;;;6.20;99.90;;;5.62;100.00;98667.38;5000179;28;20380;-71
2022/03/27 02:33:37;;;;;;;23.10;13.30;;;6.10;99.90;;;5.58;100.00;98663.94;5005895;28;20084;-71
2022/03/27 02:36:08;;;;;;;23.60;15.00;;;6.00;99.90;;;5.55;100.00;98663.97;5005545;28;20389;-72
2022/03/27 02:38:36;;;;;;;23.38;14.07;;;6.00;99.90;;;5.51;100.00;98664.00;5003576;28;20503;-72
2022/03/27 02:41:04;;;;;;;20.30;13.98;;;5.90;99.90;;;5.67;100.00;98670.78;5014867;28;20076;-71
2022/03/27 02:43:31;;;;;;;21.20;13.75;;;6.00;99.90;;;5.73;100.00;98667.31;5005292;28;20042;-72
2022/03/27 02:45:59;;;;;;;23.77;13.40;;;6.00;99.90;;;5.70;100.00;98667.31;5008449;28;20492;-71
2022/03/27 02:48:26;;;;;;;21.75;14.48;;;6.00;99.90;;;5.76;100.00;98667.28;5001726;28;20056;-71
2022/03/27 02:50:54;;;;;;;26.38;13.90;;;6.00;99.90;;;5.90;100.00;98659.47;5003996;28;20050;-71
2022/03/27 02:53:21;;;;;;;24.92;14.55;;;6.20;99.90;;;5.97;100.00;98664.59;5003301;28;20397;-71
2022/03/27 02:55:48;;;;;;;23.95;12.95;;;6.20;99.90;;;5.99;100.00;98660.31;5006265;28;20088;-71
2022/03/27 02:58:15;;;;;;;24.40;14.95;;;6.30;99.90;;;5.93;100.00;98657.75;5006351;28;20116;-72
2022/03/27 03:00:43;;;;;;;27.80;13.98;;;6.20;99.90;;;6.08;100.00;98651.66;5000340;28;20046;-71
2022/03/27 03:03:10;;;;;;;23.63;14.18;;;6.30;99.90;;;5.94;100.00;98659.47;5016697;28;20132;-72
2022/03/27 03:05:39;;;;;;;29.45;14.85;;;6.30;99.90;;;5.95;100.00;98656.03;5003728;28;20065;-72
2022/03/27 03:08:11;;;;;;;25.65;14.35;;;6.30;99.90;;;5.82;100.00;98659.53;5002965;28;20088;-72
2022/03/27 03:10:40;;;;;;;23.08;13.57;;;6.20;99.90;;;5.75;100.00;98657.88;5001004;28;20041;-72
2022/03/27 03:13:08;;;;;;;22.58;12.93;;;6.20;99.90;;;5.64;100.00;98661.34;5002192;28;20077;-72
2022/03/27 03:15:37;;;;;;;23.85;13.43;;;6.10;99.90;;;5.69;100.00;98661.31;5001274;28;20125;-72
2022/03/27 03:18:05;;;;;;;25.85;13.20;;;6.00;99.90;;;5.62;100.00;98657.06;5004778;28;20095;-72
2022/03/27 03:20:33;;;;;;;22.33;13.45;;;6.00;99.90;;;5.50;100.00;98657.16;5005388;28;20046;-71
2022/03/27 03:23:06;;;;;;;22.10;13.50;;;5.90;99.90;;;5.53;100.00;98655.41;5001049;28;20057;-73
2022/03/27 03:25:33;;;;;;;21.13;13.57;;;5.90;99.90;;;5.74;100.00;98645.84;5003638;28;20058;-72
2022/03/27 03:28:20;;;;;;;23.00;14.15;;;6.00;99.90;;;5.61;100.00;98655.34;5004962;28;20072;-72
2022/03/27 03:30:47;;;;;;;21.95;13.43;;;6.00;99.90;;;5.39;100.00;98650.31;5003601;28;20137;-72
2022/03/27 03:33:14;;;;;;;21.20;14.05;;;5.90;99.90;;;5.50;100.00;98652.84;5002358;28;20050;-73
2022/03/27 03:35:42;;;;;;;25.58;14.50;;;5.90;99.90;;;5.36;100.00;98655.50;5002477;28;20054;-72
2022/03/27 03:38:09;;;;;;;25.77;15.38;;;5.80;99.90;;;5.41;100.00;98658.03;5018229;28;20053;-72
2022/03/27 03:40:37;;;;;;;23.33;14.15;;;5.80;99.90;;;5.50;100.00;98649.44;5008094;28;20054;-72
2022/03/27 03:43:05;;;;;;;22.38;13.90;;;5.80;99.90;;;5.33;100.00;98654.63;5006298;28;20038;-72
2022/03/27 03:45:32;;;;;;;24.52;14.05;;;5.80;99.90;;;5.31;100.00;98648.63;5003440;28;20100;-72
2022/03/27 03:48:00;;;;;;;26.23;15.07;;;5.70;99.90;;;5.37;100.00;98654.63;5011638;28;20088;-72
2022/03/27 03:50:27;;;;;;;30.85;14.43;;;5.70;99.90;;;5.42;100.00;98652.88;5005885;28;20524;-70
2022/03/27 03:52:54;;;;;;;23.83;13.15;;;5.70;99.90;;;5.25;100.00;98652.09;5008235;28;20046;-73
2022/03/27 03:55:22;;;;;;;23.08;14.00;;;5.70;99.90;;;5.13;100.00;98644.41;5005165;28;20084;-72
2022/03/27 03:57:48;;;;;;;25.83;15.20;;;5.60;99.90;;;5.08;100.00;98656.44;5007632;28;20121;-71
2022/03/27 04:00:16;;;;;;;24.58;14.70;;;5.50;99.90;;;4.98;100.00;98655.63;5005787;28;20479;-71
2022/03/27 04:02:43;;;;;;;21.25;13.68;;;5.50;99.90;;;4.97;100.00;98659.91;5008469;28;20104;-71
2022/03/27 04:05:10;;;;;;;24.10;14.43;;;5.40;99.90;;;5.00;100.00;98659.91;5002494;28;20057;-72
2022/03/27 04:07:37;;;;;;;20.08;13.77;;;5.40;99.90;;;4.95;100.00;98661.63;5005503;28;20057;-71
2022/03/27 04:10:04;;;;;;;25.33;14.45;;;5.40;99.90;;;4.88;100.00;98661.63;5004858;28;20522;-71
2022/03/27 04:12:32;;;;;;;26.15;14.57;;;5.30;99.90;;;4.81;100.00;98666.81;5022997;28;20134;-71
2022/03/27 04:14:59;;;;;;;24.70;15.25;;;5.20;99.90;;;4.81;100.00;98665.94;5005527;28;20128;-71
2022/03/27 04:17:26;;;;;;;25.23;14.05;;;5.20;99.90;;;4.80;100.00;98659.94;5007379;28;20144;-71
2022/03/27 04:19:53;;;;;;;24.42;15.73;;;5.20;99.90;;;4.86;100.00;98656.53;5003007;28;20475;-71
2022/03/27 04:22:20;;;;;;;23.80;14.98;;;5.20;99.90;;;4.90;100.00;98657.34;5001297;28;20054;-71
2022/03/27 04:24:47;;;;;;;24.63;15.40;;;5.20;99.90;;;4.88;100.00;98664.22;5003189;28;20049;-71
2022/03/27 04:27:15;;;;;;;24.80;14.77;;;5.30;99.90;;;4.81;100.00;98660.78;5002066;28;20140;-71
2022/03/27 04:29:42;;;;;;;24.52;15.13;;;5.20;99.90;;;4.76;100.00;98663.38;5005079;28;20133;-71
2022/03/27 04:32:09;;;;;;;24.60;15.68;;;5.20;99.90;;;4.63;100.00;98665.97;5005762;28;20129;-71
2022/03/27 04:34:36;;;;;;;24.13;15.18;;;5.10;99.90;;;4.62;100.00;98667.69;5023847;28;20108;-71
2022/03/27 04:37:05;;;;;;;26.60;15.68;;;5.10;99.90;;;4.58;100.00;98665.97;5005517;28;20109;-71
2022/03/27 04:39:32;;;;;;;29.23;17.75;;;5.00;99.90;;;4.46;100.00;98666.00;5007545;28;20568;-71
2022/03/27 04:41:59;;;;;;;26.52;17.17;;;5.00;99.90;;;4.50;100.00;98670.28;5005251;28;20137;-71
2022/03/27 04:44:26;;;;;;;26.48;15.75;;;5.00;99.90;;;4.45;100.00;98662.59;5005388;28;20475;-71
2022/03/27 04:46:53;;;;;;;28.40;15.82;;;4.90;99.90;;;4.33;100.00;98675.41;5012732;28;20050;-71
2022/03/27 04:49:20;;;;;;;26.38;14.98;;;4.90;99.90;;;4.14;100.00;98662.56;5003385;28;20137;-71
2022/03/27 04:51:47;;;;;;;22.40;15.52;;;4.70;99.90;;;4.12;100.00;98671.13;4999118;28;20432;-71
2022/03/27 04:54:13;;;;;;;25.00;15.73;;;4.60;99.90;;;4.07;100.00;98675.41;5004247;28;20104;-71
2022/03/27 04:56:45;;;;;;;24.70;15.55;;;4.60;99.90;;;4.01;100.00;98673.69;5000230;28;20061;-71
2022/03/27 04:59:12;;;;;;;28.20;17.20;;;4.50;99.90;;;3.98;100.00;98677.09;5004695;28;20052;-71
2022/03/27 05:01:41;;;;;;;32.95;17.83;;;4.50;99.90;;;3.89;100.00;98677.09;5003859;28;20108;-71
2022/03/27 05:04:09;;;;;;;31.40;17.77;;;4.50;99.90;;;3.98;100.00;98676.25;5019650;28;20077;-71
2022/03/27 05:06:36;;;;;;;36.72;21.60;;;4.50;99.90;;;4.10;100.00;98683.13;5005437;28;20579;-71
2022/03/27 05:09:03;;;;;;;44.63;21.38;;;4.50;99.90;;;4.38;100.00;98681.44;5001934;28;20081;-71
2022/03/27 05:11:30;;;;;;;46.08;22.13;;;4.60;99.90;;;4.41;100.00;98681.44;5004395;28;20086;-71
2022/03/27 05:13:57;;;;;;;34.15;18.58;;;4.70;99.90;;;4.47;100.00;98680.56;5006978;28;20045;-71
2022/03/27 05:16:24;;;;;;;30.58;18.38;;;4.80;99.90;;;4.38;100.00;98678.88;5009378;28;20057;-71
2022/03/27 05:18:51;;;;;;;29.17;17.77;;;4.70;99.90;;;4.32;100.00;98681.44;5017121;28;20056;-71
2022/03/27 05:21:18;;;;;;;28.85;18.33;;;4.80;99.90;;;4.38;100.00;98682.28;5005080;28;20050;-71
2022/03/27 05:23:45;;;;;;;25.75;18.83;;;4.80;99.90;;;4.42;100.00;98687.41;5002341;28;20129;-71
2022/03/27 05:26:12;;;;;;;25.75;17.20;;;4.80;99.90;;;4.60;100.00;98689.97;5002530;28;20088;-71
2022/03/27 05:28:40;;;;;;;31.88;19.30;;;4.90;99.90;;;4.66;100.00;98684.84;5003441;28;20516;-71
2022/03/27 05:31:09;;;;;;;29.75;18.13;;;5.00;99.90;;;4.72;100.00;98690.00;5005885;28;20129;-71
2022/03/27 05:33:37;;;;;;;30.00;18.88;;;5.10;99.90;;;4.97;100.00;98692.50;5008747;28;20057;-71
2022/03/27 05:36:09;;;;;;;25.45;17.75;;;5.20;99.90;;;4.97;100.00;98692.50;5000135;28;20424;-71
2022/03/27 05:38:38;;;;;;;27.48;16.95;;;5.30;99.90;;;5.01;100.00;98681.34;5005046;28;20580;-71
2022/03/27 05:41:09;;;;;;;26.77;18.38;;;5.40;99.90;;;5.20;100.00;98687.28;5021732;28;20392;-71
2022/03/27 05:43:36;;;;;;;24.58;17.88;;;5.50;99.90;;;5.24;100.00;98683.84;5005691;28;20077;-71
2022/03/27 05:46:03;;;;;;;25.20;17.52;;;5.60;99.90;;;5.39;100.00;98680.38;5003600;28;20084;-71
2022/03/27 05:48:34;;;;;;;29.65;17.73;;;5.70;99.90;;;5.42;100.00;98677.75;5003364;28;20123;-71
2022/03/27 05:51:01;;;;;;;24.98;18.85;;;5.80;99.90;;;5.76;100.00;98683.59;5002185;28;20116;-71
2022/03/27 05:53:28;;;;;;;29.05;18.63;;;6.00;99.90;;;5.81;100.00;98683.56;5021251;28;20695;-71
2022/03/27 05:55:57;;;;;;;25.08;18.05;;;6.10;99.90;;;5.90;100.00;98686.09;5006485;28;20133;-71
2022/03/27 05:58:24;;;;;;;27.70;16.85;;;6.20;99.90;;;6.00;100.00;98690.38;5005139;28;20559;-71
2022/03/27 06:00:52;;;;;;;24.10;15.68;;;6.40;99.90;;;6.15;100.00;98696.28;5004183;28;20060;-71
2022/03/27 06:03:19;;;;;;;28.55;16.45;;;6.40;99.90;;;5.99;100.00;98704.13;5002951;28;20410;-71
2022/03/27 06:05:46;;;;;;;30.83;16.67;;;6.40;99.90;;;6.14;100.00;98698.03;5003995;28;20054;-71
2022/03/27 06:08:13;;;;;;;25.50;15.77;;;6.50;99.90;;;6.39;100.00;98701.28;5004110;28;20073;-71
2022/03/27 06:10:41;;;;;;;27.20;17.27;;;6.60;99.90;;;6.40;100.00;98702.97;5002739;28;20081;-71
2022/03/27 06:13:10;;;;;;;30.67;16.08;;;6.70;99.90;;;6.64;100.00;98693.34;5006414;28;20500;-71
2022/03/27 06:15:37;;;;;;;27.95;16.95;;;6.90;99.90;;;6.84;100.00;98691.44;5003189;28;20484;-71
2022/03/27 06:18:10;;;;;;;27.58;16.27;;;7.10;99.90;;;6.84;100.00;98696.59;5003680;28;20103;-71
2022/03/27 06:20:38;;;;;;;33.30;20.17;;;7.20;99.90;;;7.16;100.00;98702.28;5017557;28;20078;-71
2022/03/27 06:23:06;;;;;;;31.10;17.92;;;7.40;99.90;;;7.31;100.00;98702.97;5003780;28;20133;-71
2022/03/27 06:25:34;;;;;;;29.48;17.08;;;7.60;99.90;;;7.59;100.00;98692.28;5004310;28;20176;-71
2022/03/27 06:28:02;;;;;;;29.17;17.88;;;7.80;99.90;;;7.68;100.00;98699.06;5003627;28;20073;-71
2022/03/27 06:30:31;;;;;;;38.33;21.05;;;7.90;99.90;;;7.78;100.00;98700.69;5005130;28;20042;-71
2022/03/27 06:32:59;;;;;;;50.13;26.42;;;8.10;99.90;;;8.01;100.00;98700.34;5005519;28;20142;-71
2022/03/27 06:35:28;;;;;;;39.45;22.83;;;8.30;99.90;;;8.25;100.00;98693.09;5004095;28;20084;-71
2022/03/27 06:37:58;;;;;;;31.83;19.48;;;8.60;99.90;;;8.30;100.00;98696.47;5005939;28;20038;-71
2022/03/27 06:40:26;;;;;;;27.92;17.55;;;8.60;99.90;;;8.44;100.00;98686.81;5000972;28;20394;-71
2022/03/27 06:42:53;;;;;;;24.92;14.65;;;8.80;99.90;;;8.54;100.00;98692.69;5002049;28;20050;-71
2022/03/27 06:45:22;;;;;;;25.13;15.27;;;8.90;99.90;;;8.66;100.00;98689.88;5000553;28;20046;-71
2022/03/27 06:47:50;;;;;;;24.00;16.25;;;9.00;99.90;;;8.74;100.00;98695.78;5003674;28;20119;-71
2022/03/27 06:50:22;;;;;;;24.33;15.43;;;9.10;99.90;;;8.83;100.00;98699.09;5004944;28;20104;-71
2022/03/27 06:52:51;;;;;;;22.45;15.32;;;9.20;99.90;;;8.87;100.00;98701.59;5003418;28;20101;-71
2022/03/27 06:55:20;;;;;;;21.65;14.82;;;9.30;99.90;;;8.93;100.00;98688.53;5007550;28;20081;-71
2022/03/27 06:57:47;;;;;;;26.10;13.90;;;9.40;99.90;;;9.12;100.00;98690.78;5002188;28;20165;-71
2022/03/27 07:03:02;;;;;;;28.13;16.25;;;9.60;99.90;;;9.15;100.00;98701.94;5004681;28;20056;-71
2022/03/27 07:05:36;;;;;;;25.63;14.75;;;9.70;99.90;;;9.34;100.00;98701.59;5000147;28;20056;-71
2022/03/27 07:08:09;;;;;;;24.85;15.00;;;9.70;99.90;;;9.43;100.00;98702.25;5003499;28;20063;-71
2022/03/27 07:10:37;;;;;;;24.75;15.55;;;9.90;99.90;;;9.51;100.00;98703.84;5002180;28;20113;-71
2022/03/27 07:13:08;;;;;;;26.02;15.38;;;9.90;99.90;;;9.51;100.00;98701.25;5007181;28;20085;-72
2022/03/27 07:15:39;;;;;;;26.17;15.88;;;10.00;99.90;;;9.71;100.00;98703.44;5004430;28;20054;-72
2022/03/27 07:18:08;;;;;;;26.48;15.73;;;10.10;99.90;;;9.75;100.00;98702.50;5008776;28;20049;-71
2022/03/27 07:20:38;;;;;;;25.60;14.82;;;10.20;99.90;;;9.84;100.00;98705.72;5005613;28;20085;-71
2022/03/27 07:23:09;;;;;;;26.42;16.38;;;10.30;99.90;;;9.96;100.00;98701.16;5008769;28;20045;-71
2022/03/27 07:25:40;;;;;;;23.67;14.98;;;10.40;99.90;;;10.04;100.00;98705.31;5012488;28;21485;-71
2022/03/27 07:28:09;;;;;;;23.60;14.85;;;;;;;10.15;100.00;98701.59;5006698;28;20050;-72
2022/03/27 07:30:37;;;;;;;27.42;15.45;;;10.60;99.90;;;10.19;100.00;98706.69;5005722;28;20511;-71
2022/03/27 07:33:05;;;;;;;23.80;15.68;;;10.70;99.90;;;10.28;100.00;98700.44;5003729;28;20081;-71
2022/03/27 07:35:32;;;;;;;27.33;15.23;;;10.80;99.90;;;10.32;100.00;98696.06;4999672;28;20138;-71
2022/03/27 07:38:00;;;;;;;25.35;14.90;;;10.80;99.90;;;10.46;100.00;98700.03;5008380;28;20080;-72
2022/03/27 07:40:28;;;;;;;28.52;16.05;;;10.90;99.90;;;10.49;100.00;98706.91;5005286;28;20129;-71
2022/03/27 07:42:56;;;;;;;26.33;16.02;;;11.00;99.90;;;10.52;100.00;98705.97;5010827;28;20041;-71
2022/03/27 07:45:27;;;;;;;23.00;15.30;;;11.00;99.90;;;10.64;100.00;98700.47;5007145;28;20577;-71
2022/03/27 07:47:55;;;;;;;25.23;15.48;;;11.10;99.90;;;10.79;100.00;98694.91;5006505;28;20504;-71
2022/03/27 07:50:25;;;;;;;26.70;15.55;;;11.20;99.90;;;10.97;100.00;98697.91;4993283;28;20413;-72
2022/03/27 07:52:52;;;;;;;25.58;15.45;;;11.30;99.90;;;11.00;100.00;98696.06;5007092;28;20096;-72
2022/03/27 07:55:21;;;;;;;27.95;15.50;;;11.50;99.90;;;11.03;100.00;98695.16;5007930;28;20050;-72
2022/03/27 07:57:53;;;;;;;24.13;14.02;;;11.60;99.90;;;11.26;100.00;98690.16;5004708;28;20112;-71
2022/03/27 08:00:21;;;;;;;21.52;14.50;;;11.60;99.90;;;11.28;100.00;98700.53;4999858;28;20564;-71
2022/03/27 08:02:48;;;;;;;24.17;14.70;;;11.80;99.90;;;11.34;100.00;98697.78;5005425;28;20049;-71
2022/03/27 08:05:16;;;;;;;29.63;15.35;;;11.90;99.90;;;11.20;100.00;98697.28;5000092;28;20058;-71
2022/03/27 08:07:45;;;;;;;22.35;13.98;;;11.90;99.90;;;11.46;100.00;98692.22;5007565;28;20053;-71
2022/03/27 08:10:14;;;;;;;23.38;15.05;;;12.10;99.90;;;11.71;100.00;98694.97;5002466;28;20058;-72
2022/03/27 08:12:42;;;;;;;25.10;14.73;;;12.40;99.90;;;11.77;100.00;98690.47;5007094;28;20047;-71
2022/03/27 08:15:09;;;;;;;22.00;13.68;;;12.50;99.90;;;12.14;100.00;98688.50;5004563;28;20558;-72
2022/03/27 08:17:36;;;;;;;19.60;13.55;;;12.80;99.90;;;12.54;100.00;98695.06;5003455;28;20084;-72
2022/03/27 08:20:05;;;;;;;20.23;13.57;;;13.10;99.90;;;12.83;100.00;98698.44;5003348;28;20048;-72
2022/03/27 08:22:33;;;;;;;21.30;13.10;;;13.20;99.90;;;13.05;100.00;98695.94;5019614;28;20042;-71
2022/03/27 08:25:01;;;;;;;19.90;12.40;;;13.30;99.90;;;13.25;100.00;98695.25;5002886;28;20056;-71
2022/03/27 08:27:31;;;;;;;19.70;12.40;;;13.50;99.90;;;13.59;100.00;98694.03;5015249;28;20137;-71
2022/03/27 08:29:59;;;;;;;21.38;13.65;;;13.80;99.90;;;13.54;100.00;98702.03;5002444;28;20137;-71
2022/03/27 08:32:26;;;;;;;23.10;12.77;;;13.90;99.90;;;14.28;100.00;98699.25;5003424;28;20080;-71
2022/03/27 08:34:53;;;;;;;16.30;12.30;;;14.20;99.90;;;14.57;100.00;98699.84;5003607;28;20128;-71
2022/03/27 08:37:21;;;;;;;15.60;11.82;;;14.60;99.90;;;15.18;100.00;98701.66;5004451;28;20208;-71
2022/03/27 08:39:48;;;;;;;18.70;12.23;;;14.90;99.90;;;15.34;100.00;98694.00;5004686;28;20152;-70
2022/03/27 08:42:19;;;;;;;16.42;12.65;;;15.10;99.90;;;15.28;100.00;98702.97;5003055;28;20049;-71
2022/03/27 08:44:47;;;;;;;18.90;13.30;;;15.30;99.90;;;15.32;100.00;98696.66;5008089;28;20096;-71
2022/03/27 08:47:26;;;;;;;17.50;12.68;;;15.30;99.90;;;15.67;100.00;98700.34;5006190;28;20048;-71
2022/03/27 08:50:31;;;;;;;22.02;11.93;;;15.40;99.90;;;16.18;100.00;98697.16;5005832;28;20366;-71
2022/03/27 08:53:01;;;;;;;20.55;12.07;;;15.80;99.90;;;16.02;100.00;98705.75;5007353;28;20082;-71
2022/03/27 08:55:38;;;;;;;20.67;13.02;;;15.90;98.50;;;16.50;100.00;98704.31;5005976;28;20054;-71
2022/03/27 08:58:11;;;;;;;17.50;12.50;;;16.20;99.20;;;16.86;100.00;98694.75;5004893;28;20233;-71
2022/03/27 09:00:40;;;;;;;18.25;11.60;;;16.50;98.20;;;17.05;100.00;98700.75;5004609;28;20058;-71
2022/03/27 09:03:07;;;;;;;14.98;11.13;;;16.70;96.90;;;17.16;100.00;98694.97;5007759;28;20083;-71
2022/03/27 09:05:39;;;;;;;16.45;11.48;;;16.60;96.40;;;16.49;100.00;98699.19;5004507;28;20069;-71
2022/03/27 09:08:11;;;;;;;16.90;11.13;;;16.50;95.50;;;16.97;100.00;98697.69;5003881;28;20100;-70
2022/03/27 09:10:40;;;;;;;16.77;10.93;;;16.70;95.80;;;17.04;100.00;98695.59;5001068;28;20101;-71
2022/03/27 09:13:19;;;;;;;20.85;11.15;;;16.80;95.10;;;17.14;100.00;98692.41;5001702;28;20052;-71
2022/03/27 09:16:08;;;;;;;16.92;11.32;;;16.90;95.10;;;17.21;100.00;98692.09;5001835;28;20539;-71
2022/03/27 09:18:53;;;;;;;15.38;10.07;;;16.80;95.00;;;17.80;100.00;98701.22;5018948;28;20109;-71
2022/03/27 09:21:26;;;;;;;18.70;10.70;;;17.30;94.10;;;17.78;100.00;98693.41;5002450;28;20054;-71
2022/03/27 09:23:59;;;;;;;18.27;11.32;;;17.40;94.10;;;17.71;100.00;98699.09;5003561;28;20204;-71
2022/03/27 09:26:28;;;;;;;15.88;11.15;;;17.40;93.60;;;17.94;100.00;98695.25;5003360;28;20508;-71
2022/03/27 09:29:10;;;;;;;15.52;10.70;;;17.80;93.00;;;18.66;100.00;98696.44;5003256;28;20133;-71
2022/03/27 09:31:37;;;;;;;14.32;9.73;;;18.00;92.70;;;18.76;100.00;98689.69;5017047;28;20042;-71
2022/03/27 09:34:07;;;;;;;15.63;10.73;;;18.30;91.70;;;18.54;100.00;98691.88;5000651;28;20475;-70
2022/03/27 09:36:42;;;;;;;15.38;10.15;;;18.20;91.60;;;18.79;100.00;98691.34;5001949;28;20046;-71
2022/03/27 09:39:16;;;;;;;16.40;9.85;;;18.50;91.50;;;19.86;100.00;98684.00;5004713;28;20069;-70
2022/03/27 09:41:51;;;;;;;18.02;10.75;;;18.90;91.30;;;20.32;97.65;98678.47;5001727;28;20053;-71
2022/03/27 09:44:36;;;;;;;16.25;9.95;;;19.40;90.00;;;19.24;98.75;98681.66;5003190;28;20056;-71
2022/03/27 09:47:10;;;;;;;13.88;9.70;;;19.10;88.10;;;18.93;98.54;98682.63;5002796;28;20129;-71
2022/03/27 09:49:43;;;;;;;13.50;9.75;;;19.00;86.70;;;20.04;96.42;98674.94;5000816;28;20124;-71
2022/03/27 09:52:17;;;;;;;17.52;9.85;;;19.40;86.60;;;19.43;97.77;98676.97;5003549;28;20084;-71
2022/03/27 09:54:57;;;;;;;13.85;9.23;;;19.30;86.70;;;19.05;100.00;98670.56;5003156;28;20046;-71
2022/03/27 09:57:31;;;;;;;13.57;7.72;;;19.10;86.90;;;19.57;96.66;98670.03;5001637;28;20490;-71
2022/03/27 10:00:19;;;;;;;14.98;9.10;;;19.40;84.90;;;19.52;94.82;98662.38;5001614;28;20046;-71
2022/03/27 10:02:48;;;;;;;13.55;8.02;;;19.50;83.20;;;19.79;95.19;98672.19;5003933;28;20474;-71
2022/03/27 10:05:18;;;;;;;11.00;7.80;;;19.80;82.90;;;20.55;90.40;98661.13;5002488;28;20061;-71
2022/03/27 10:07:52;;;;;;;17.35;9.45;;;20.00;81.50;;;19.62;92.64;98655.59;4998099;28;20543;-71
2022/03/27 10:10:22;;;;;;;14.00;8.50;;;19.60;81.30;;;19.53;93.99;98660.63;5002748;28;20129;-71
2022/03/27 10:12:55;;;;;;;16.50;8.65;;;19.30;82.30;;;19.16;93.59;98660.25;5000198;28;20053;-71
2022/03/27 10:15:28;;;;;;;11.68;7.65;;;19.20;81.30;;;20.11;90.86;98648.19;5003705;28;20142;-70
2022/03/27 10:18:08;;;;;;;13.70;8.32;;;19.50;81.50;;;19.63;92.75;98648.56;5006040;28;20057;-71
2022/03/27 10:20:37;;;;;;;17.85;9.05;;;19.40;81.10;;;19.36;93.24;98649.34;5003118;28;20409;-71
2022/03/27 10:23:21;;;;;;;17.23;8.60;;;19.70;80.70;;;19.92;91.78;98648.53;5003950;28;20691;-71
2022/03/27 10:26:01;;;;;;;20.88;12.85;;;19.50;80.50;;;20.00;90.27;98644.47;5002197;28;20125;-70